Time;durP1;ratioP1;P1;durP2;ratioP2;P2;SDS_P1;SDS_P2;PMS_P1;PMS_P2;Temp;Humidity;BMP_temperature;BMP_pressure;BME280_temperature;BME280_humidity;BME280_pressure;Samples;Min_cycle;Max_cycle;Signal;HPM_P1;HPM_P2
2023/07/05 00:00:43;;;;;;;11.85;7.72;;;21.70;99.90;;;;;;5060853;28;20409;-72
2023/07/05 00:03:10;;;;;;;9.85;7.70;;;21.70;99.90;;;;;;5077161;28;20406;-72
2023/07/05 00:05:38;;;;;;;10.98;7.95;;;21.70;99.90;;;;;;5075384;28;20419;-72
2023/07/05 00:08:06;;;;;;;11.10;8.43;;;21.80;99.90;;;;;;5061496;28;20417;-72
2023/07/05 00:10:33;;;;;;;10.70;7.88;;;21.80;99.90;;;;;;5074004;28;20454;-72
2023/07/05 00:13:00;;;;;;;13.05;7.80;;;21.80;99.90;;;;;;5077830;28;20764;-72
2023/07/05 00:15:28;;;;;;;10.70;8.00;;;21.70;99.90;;;;;;5080542;28;20497;-73
2023/07/05 00:17:55;;;;;;;11.88;8.40;;;21.70;99.90;;;;;;5078070;28;20414;-72
2023/07/05 00:20:22;;;;;;;10.30;8.25;;;21.70;99.90;;;;;;5075371;28;20406;-72
2023/07/05 00:22:49;;;;;;;12.35;7.90;;;21.60;99.90;;;;;;5075363;28;20414;-72
2023/07/05 00:25:16;;;;;;;10.27;7.80;;;21.60;99.90;;;;;;5076901;28;20945;-72
2023/07/05 00:27:43;;;;;;;11.63;8.30;;;21.60;99.90;;;;;;5072769;28;21042;-72
2023/07/05 00:30:10;;;;;;;13.07;8.38;;;21.60;99.90;;;;;;5102383;27;20754;-72
2023/07/05 00:32:36;;;;;;;12.95;8.30;;;21.60;99.90;;;;;;5074863;28;21241;-72
2023/07/05 00:35:03;;;;;;;12.00;8.40;;;21.50;99.90;;;;;;5079090;28;20436;-72
2023/07/05 00:37:29;;;;;;;10.82;8.18;;;21.40;99.90;;;;;;5109505;27;20413;-72
2023/07/05 00:39:55;;;;;;;12.07;8.30;;;21.40;99.90;;;;;;5074966;28;20510;-72
2023/07/05 00:42:21;;;;;;;11.77;8.57;;;21.40;99.90;;;;;;5078870;28;20410;-72
2023/07/05 00:45:09;;;;;;;14.57;8.88;;;21.30;99.90;;;;;;5073317;28;20892;-72
2023/07/05 00:47:37;;;;;;;12.15;8.43;;;21.40;99.90;;;;;;5071732;28;20415;-72
2023/07/05 00:50:25;;;;;;;11.45;8.32;;;21.40;99.90;;;;;;5100703;27;20515;-72
2023/07/05 00:52:54;;;;;;;13.30;8.50;;;21.30;99.90;;;;;;5073003;28;20932;-72
2023/07/05 00:55:23;;;;;;;10.48;8.85;;;21.30;99.90;;;;;;5070490;28;20413;-72
2023/07/05 00:57:49;;;;;;;12.43;8.80;;;21.30;99.90;;;;;;5073368;28;20413;-73
2023/07/05 01:00:21;;;;;;;13.38;8.95;;;21.20;99.90;;;;;;5073742;28;20412;-72
2023/07/05 01:02:56;;;;;;;11.20;8.85;;;21.20;99.90;;;;;;5082626;28;20419;-72
2023/07/05 01:05:25;;;;;;;13.87;9.10;;;21.30;99.90;;;;;;5108096;27;20405;-72
2023/07/05 01:07:51;;;;;;;11.38;8.88;;;21.20;99.90;;;;;;5070025;28;20517;-72
2023/07/05 01:10:21;;;;;;;11.80;8.80;;;21.20;99.90;;;;;;5071975;28;20414;-72
2023/07/05 01:13:10;;;;;;;11.77;8.13;;;21.20;99.90;;;;;;5069761;28;20878;-72
2023/07/05 01:16:08;;;;;;;13.07;8.82;;;21.10;99.90;;;;;;5079105;28;20414;-72
2023/07/05 01:18:59;;;;;;;12.50;8.82;;;21.10;99.90;;;;;;5077963;28;20410;-72
2023/07/05 01:21:43;;;;;;;14.07;8.82;;;21.10;99.90;;;;;;5078247;28;20695;-72
2023/07/05 01:24:53;;;;;;;12.02;8.60;;;21.10;99.90;;;;;;5078252;28;20408;-72
2023/07/05 01:27:38;;;;;;;14.80;8.77;;;21.10;99.90;;;;;;5055249;28;20441;-72
2023/07/05 01:30:32;;;;;;;13.82;8.82;;;21.10;99.90;;;;;;5066821;28;20413;-72
2023/07/05 01:33:19;;;;;;;10.48;8.80;;;21.10;99.90;;;;;;5072533;28;20527;-72
2023/07/05 01:35:50;;;;;;;12.48;9.10;;;21.00;99.90;;;;;;5094768;28;20429;-72
2023/07/05 01:38:17;;;;;;;13.90;9.23;;;21.00;99.90;;;;;;5078065;28;20483;-72
2023/07/05 01:41:00;;;;;;;13.23;9.00;;;21.00;99.90;;;;;;5106007;27;20580;-72
2023/07/05 01:43:29;;;;;;;14.48;9.25;;;21.00;99.90;;;;;;5074373;28;20410;-72
2023/07/05 01:46:09;;;;;;;12.90;9.30;;;21.00;99.90;;;;;;5076164;28;20400;-72
2023/07/05 01:49:08;;;;;;;10.90;9.00;;;21.00;99.90;;;;;;5078829;28;20798;-72
2023/07/05 01:51:52;;;;;;;13.50;9.23;;;21.10;99.90;;;;;;5057551;28;20769;-72
2023/07/05 01:54:58;;;;;;;11.43;8.75;;;21.10;99.90;;;;;;5070696;28;20406;-72
2023/07/05 01:57:54;;;;;;;14.15;9.15;;;21.00;99.90;;;;;;5070596;28;20458;-72
2023/07/05 02:00:24;;;;;;;11.60;8.93;;;21.00;99.90;;;;;;5069489;28;20804;-72
2023/07/05 02:03:05;;;;;;;12.48;9.02;;;21.10;99.90;;;;;;5093520;27;21947;-72
2023/07/05 02:05:33;;;;;;;12.23;8.95;;;21.10;99.90;;;;;;5059797;28;20473;-72
2023/07/05 02:08:00;;;;;;;11.43;9.00;;;21.00;99.90;;;;;;5103410;27;20412;-72
2023/07/05 02:10:28;;;;;;;14.03;10.20;;;21.00;99.90;;;;;;5071720;28;20411;-72
2023/07/05 02:12:56;;;;;;;12.88;9.60;;;21.00;99.90;;;;;;5076414;28;20425;-72
2023/07/05 02:15:23;;;;;;;15.10;9.40;;;20.90;99.90;;;;;;5073644;28;20528;-72
2023/07/05 02:17:50;;;;;;;14.87;9.83;;;20.80;99.90;;;;;;5077852;28;20417;-72
2023/07/05 02:20:16;;;;;;;12.27;9.27;;;20.70;99.90;;;;;;5070802;28;21082;-72
2023/07/05 02:22:43;;;;;;;13.35;9.30;;;20.70;99.90;;;;;;5081850;28;20510;-72
2023/07/05 02:25:09;;;;;;;13.35;9.55;;;20.80;99.90;;;;;;5068535;28;20495;-72
2023/07/05 02:27:35;;;;;;;12.80;9.75;;;20.80;99.90;;;;;;5106785;27;20498;-72
2023/07/05 02:30:02;;;;;;;14.27;9.95;;;20.80;99.90;;;;;;5093468;27;20418;-72
2023/07/05 02:32:28;;;;;;;12.70;9.48;;;20.70;99.90;;;;;;5069321;28;20416;-72
2023/07/05 02:35:00;;;;;;;15.63;10.15;;;20.70;99.90;;;;;;5060892;28;20427;-72
2023/07/05 02:37:26;;;;;;;14.90;10.68;;;20.70;99.90;;;;;;5074130;28;20428;-72
2023/07/05 02:39:56;;;;;;;14.20;10.07;;;20.70;99.90;;;;;;5059236;28;20498;-72
2023/07/05 02:42:22;;;;;;;12.98;10.05;;;20.60;99.90;;;;;;5082441;28;20418;-72
2023/07/05 02:44:48;;;;;;;13.88;10.57;;;20.50;99.90;;;;;;5069982;28;20441;-72
2023/07/05 02:47:18;;;;;;;15.45;10.63;;;20.50;99.90;;;;;;5082826;28;20438;-72
2023/07/05 02:49:44;;;;;;;13.47;10.03;;;20.50;99.90;;;;;;5060548;28;20413;-72
2023/07/05 02:52:11;;;;;;;16.20;10.32;;;20.50;99.90;;;;;;5060471;28;20427;-72
2023/07/05 02:54:37;;;;;;;12.68;10.15;;;20.50;99.90;;;;;;5076132;28;20437;-72
2023/07/05 02:57:04;;;;;;;14.88;10.68;;;20.50;99.90;;;;;;5067109;28;20420;-72
2023/07/05 02:59:30;;;;;;;14.85;10.63;;;20.50;99.90;;;;;;5070828;28;20476;-72
2023/07/05 03:01:57;;;;;;;12.82;10.10;;;20.60;99.90;;;;;;5073697;28;20420;-72
2023/07/05 03:04:26;;;;;;;14.27;10.65;;;20.60;99.90;;;;;;5076037;28;20801;-72
2023/07/05 03:06:52;;;;;;;15.60;10.88;;;20.60;99.90;;;;;;5068205;28;20416;-72
2023/07/05 03:09:18;;;;;;;16.55;11.57;;;20.50;99.90;;;;;;5056451;28;20438;-72
2023/07/05 03:11:45;;;;;;;15.05;11.20;;;20.50;99.90;;;;;;5071376;28;20508;-72
2023/07/05 03:14:11;;;;;;;15.30;10.90;;;20.40;99.90;;;;;;5072945;28;20857;-72
2023/07/05 03:16:37;;;;;;;13.60;11.60;;;20.30;99.90;;;;;;5070878;28;20414;-72
2023/07/05 03:19:03;;;;;;;16.95;10.98;;;20.30;99.90;;;;;;5073837;28;20930;-72
2023/07/05 03:21:30;;;;;;;13.13;10.50;;;20.20;99.90;;;;;;5060811;28;20431;-72
2023/07/05 03:23:56;;;;;;;15.05;11.27;;;20.20;99.90;;;;;;5071006;28;20412;-72
2023/07/05 03:26:23;;;;;;;15.48;11.55;;;20.20;99.90;;;;;;5069114;28;20427;-72
2023/07/05 03:28:50;;;;;;;15.43;11.38;;;20.10;99.90;;;;;;5065771;28;20426;-72
2023/07/05 03:31:17;;;;;;;15.10;11.40;;;20.20;99.90;;;;;;5074912;28;20434;-72
2023/07/05 03:33:44;;;;;;;15.15;11.52;;;20.20;99.90;;;;;;5075382;28;21000;-72
2023/07/05 03:36:18;;;;;;;15.10;12.13;;;20.20;99.90;;;;;;5071501;28;20502;-72
2023/07/05 03:38:45;;;;;;;16.80;12.27;;;20.20;99.90;;;;;;5086703;28;20793;-72
2023/07/05 03:41:19;;;;;;;16.85;11.90;;;20.20;99.90;;;;;;5077911;28;20486;-72
2023/07/05 03:43:49;;;;;;;15.65;12.15;;;20.20;99.90;;;;;;5075995;28;20808;-72
2023/07/05 03:46:16;;;;;;;13.80;11.32;;;20.20;99.90;;;;;;5069470;28;20550;-72
2023/07/05 03:48:45;;;;;;;14.90;11.60;;;20.20;99.90;;;;;;5055997;28;20462;-72
2023/07/05 03:51:18;;;;;;;14.13;11.50;;;20.20;99.90;;;;;;5065879;28;20901;-73
2023/07/05 03:53:58;;;;;;;14.27;11.35;;;20.30;99.90;;;;;;5068315;28;20416;-72
2023/07/05 03:56:27;;;;;;;15.02;12.15;;;20.30;99.90;;;;;;5060873;28;20417;-72
2023/07/05 03:58:53;;;;;;;16.98;12.05;;;20.30;99.90;;;;;;5076924;28;20429;-72
2023/07/05 04:01:25;;;;;;;16.80;11.57;;;20.20;99.90;;;;;;5061431;28;20421;-72
2023/07/05 04:04:01;;;;;;;14.85;10.95;;;20.30;99.90;;;;;;5077616;28;21125;-72
2023/07/05 04:06:33;;;;;;;14.68;11.13;;;20.40;99.90;;;;;;5080432;28;20415;-72
2023/07/05 04:09:00;;;;;;;15.55;11.63;;;20.50;99.90;;;;;;5076282;28;20409;-72
2023/07/05 04:11:27;;;;;;;13.65;11.18;;;20.50;99.90;;;;;;5074135;28;20415;-72
2023/07/05 04:13:55;;;;;;;14.35;11.32;;;20.50;99.90;;;;;;5080615;28;20443;-72
2023/07/05 04:16:25;;;;;;;15.40;11.48;;;20.60;99.90;;;;;;5074154;28;20423;-72
2023/07/05 04:18:54;;;;;;;16.48;11.60;;;20.60;99.90;;;;;;5080317;28;20423;-72
2023/07/05 04:21:22;;;;;;;15.32;11.65;;;20.70;99.90;;;;;;5077591;28;20413;-72
2023/07/05 04:23:49;;;;;;;15.35;11.23;;;20.80;99.90;;;;;;5074343;28;20415;-72
2023/07/05 04:26:22;;;;;;;14.17;11.00;;;20.90;99.90;;;;;;5061475;28;20485;-72
2023/07/05 04:28:49;;;;;;;15.90;11.38;;;20.90;99.90;;;;;;5053491;28;20418;-72
2023/07/05 04:31:23;;;;;;;14.25;10.88;;;21.00;99.90;;;;;;5070559;28;20508;-73
2023/07/05 04:33:50;;;;;;;16.17;11.32;;;21.10;99.90;;;;;;5065974;28;20417;-72
2023/07/05 04:36:17;;;;;;;14.63;11.55;;;21.10;99.90;;;;;;5070139;28;20447;-72
2023/07/05 04:38:43;;;;;;;17.50;11.40;;;21.20;99.90;;;;;;5059709;28;20414;-72
2023/07/05 04:41:10;;;;;;;14.88;10.80;;;21.30;99.90;;;;;;5077999;28;20394;-72
2023/07/05 04:43:36;;;;;;;16.38;11.68;;;21.40;99.90;;;;;;5073940;28;20406;-72
2023/07/05 04:46:02;;;;;;;16.08;11.48;;;21.50;99.90;;;;;;5076318;28;20550;-72
2023/07/05 04:48:30;;;;;;;13.38;10.93;;;21.60;99.90;;;;;;5075407;28;20419;-72
2023/07/05 04:50:57;;;;;;;14.93;11.43;;;21.70;99.90;;;;;;5076963;28;20410;-72
2023/07/05 04:53:27;;;;;;;16.70;11.52;;;21.80;99.90;;;;;;5070151;28;20503;-72
2023/07/05 04:55:57;;;;;;;16.45;11.48;;;21.80;99.90;;;;;;5079045;28;20525;-72
2023/07/05 04:58:25;;;;;;;13.93;10.85;;;21.90;99.90;;;;;;5065968;28;20641;-72
2023/07/05 05:00:51;;;;;;;18.33;11.70;;;22.00;99.90;;;;;;5058187;28;20491;-73
2023/07/05 05:03:22;;;;;;;16.38;11.25;;;22.00;99.90;;;;;;5082739;28;20778;-73
2023/07/05 05:05:53;;;;;;;16.05;11.20;;;22.10;99.90;;;;;;5075140;28;20758;-72
2023/07/05 05:08:24;;;;;;;16.25;11.18;;;22.10;99.90;;;;;;5050487;28;20543;-72
2023/07/05 05:10:58;;;;;;;13.85;11.00;;;22.20;99.90;;;;;;5075740;28;20468;-72
2023/07/05 05:13:25;;;;;;;15.07;11.20;;;22.30;99.90;;;;;;5072491;28;20445;-72
2023/07/05 05:15:51;;;;;;;14.85;10.80;;;22.30;99.90;;;;;;5075908;28;20480;-72
2023/07/05 05:18:18;;;;;;;13.98;10.43;;;22.40;99.90;;;;;;5074243;28;20509;-72
2023/07/05 05:20:45;;;;;;;14.50;10.85;;;22.40;99.90;;;;;;5073824;28;20412;-72
2023/07/05 05:23:13;;;;;;;12.97;10.43;;;22.50;99.90;;;;;;5088970;27;20420;-72
2023/07/05 05:25:43;;;;;;;16.98;10.85;;;22.60;99.90;;;;;;5075799;28;21073;-72
2023/07/05 05:28:11;;;;;;;15.40;10.88;;;22.60;99.90;;;;;;5070007;28;20470;-72
2023/07/05 05:30:38;;;;;;;15.38;10.60;;;22.60;99.90;;;;;;5081795;28;20817;-72
2023/07/05 05:33:06;;;;;;;14.90;11.27;;;22.70;99.90;;;;;;5064201;28;20414;-72
2023/07/05 05:35:34;;;;;;;15.27;11.80;;;22.80;99.90;;;;;;5077256;28;20488;-72
2023/07/05 05:38:03;;;;;;;14.07;11.02;;;22.90;99.90;;;;;;5057993;28;20411;-74
2023/07/05 05:40:32;;;;;;;14.07;11.23;;;22.90;99.90;;;;;;5074320;28;20932;-72
2023/07/05 05:42:58;;;;;;;16.42;10.60;;;23.00;99.90;;;;;;5073028;28;21110;-72
2023/07/05 05:45:24;;;;;;;16.20;11.23;;;23.10;99.90;;;;;;5073786;28;20408;-72
2023/07/05 05:47:51;;;;;;;16.70;11.32;;;23.20;99.90;;;;;;5085475;27;20404;-73
2023/07/05 05:50:19;;;;;;;17.25;11.10;;;23.20;99.90;;;;;;5058434;28;20440;-72
2023/07/05 05:52:45;;;;;;;16.50;11.32;;;23.30;99.90;;;;;;5076297;28;20428;-73
2023/07/05 05:55:11;;;;;;;13.88;11.18;;;23.40;99.90;;;;;;5057872;28;20411;-72
2023/07/05 05:57:37;;;;;;;14.80;10.90;;;23.50;99.90;;;;;;5081782;28;21025;-72
2023/07/05 06:00:08;;;;;;;18.35;11.10;;;23.60;99.90;;;;;;5073413;28;20415;-72
2023/07/05 06:02:34;;;;;;;15.20;10.70;;;23.70;99.90;;;;;;5070988;28;20810;-73
2023/07/05 06:05:00;;;;;;;14.38;10.82;;;23.80;99.90;;;;;;5065037;28;20441;-73
2023/07/05 06:07:30;;;;;;;16.17;11.00;;;23.80;99.90;;;;;;5058477;28;20462;-73
2023/07/05 06:09:56;;;;;;;16.45;11.00;;;23.90;99.90;;;;;;5074860;28;20423;-73
2023/07/05 06:12:23;;;;;;;15.20;11.18;;;24.00;99.90;;;;;;5065507;28;20422;-73
2023/07/05 06:14:49;;;;;;;14.73;11.30;;;24.00;99.90;;;;;;5088550;27;20442;-72
2023/07/05 06:17:15;;;;;;;16.63;12.10;;;24.20;99.90;;;;;;5069270;28;20769;-73
2023/07/05 06:19:41;;;;;;;16.02;11.15;;;24.20;99.90;;;;;;5077469;28;20426;-72
2023/07/05 06:22:08;;;;;;;16.20;11.13;;;24.30;99.90;;;;;;5067311;28;20500;-72
2023/07/05 06:24:34;;;;;;;15.20;11.43;;;24.30;99.90;;;;;;5067800;28;20414;-72
2023/07/05 06:27:01;;;;;;;16.25;11.00;;;24.40;99.90;;;;;;5077061;28;20479;-73
2023/07/05 06:29:27;;;;;;;18.00;12.25;;;24.50;99.90;;;;;;5059450;28;20412;-72
2023/07/05 06:31:54;;;;;;;16.58;11.40;;;24.60;99.90;;;;;;5072011;28;20421;-73
2023/07/05 06:34:20;;;;;;;17.75;11.50;;;24.70;99.90;;;;;;5076805;28;20417;-72
2023/07/05 06:36:46;;;;;;;18.83;11.50;;;24.70;99.90;;;;;;5063763;28;20438;-72
2023/07/05 06:39:14;;;;;;;16.50;11.70;;;24.90;99.90;;;;;;5085957;27;20993;-73
2023/07/05 06:41:40;;;;;;;17.35;11.70;;;24.90;99.90;;;;;;5076129;28;20404;-73
2023/07/05 06:44:06;;;;;;;18.40;11.80;;;25.00;99.90;;;;;;5077337;28;20410;-72
2023/07/05 06:46:33;;;;;;;16.38;11.35;;;25.10;99.90;;;;;;5054426;28;20484;-72
2023/07/05 06:48:59;;;;;;;16.45;12.18;;;25.20;99.90;;;;;;5065201;28;20398;-72
2023/07/05 06:51:25;;;;;;;15.77;11.40;;;25.30;99.90;;;;;;5077265;28;20772;-72
2023/07/05 06:53:51;;;;;;;14.13;11.02;;;25.40;99.90;;;;;;5074436;28;20441;-73
2023/07/05 06:56:19;;;;;;;19.95;11.65;;;25.40;99.90;;;;;;5076755;28;20406;-72
2023/07/05 06:58:47;;;;;;;14.43;10.80;;;25.60;99.90;;;;;;5077830;28;20400;-72
2023/07/05 07:01:13;;;;;;;15.98;11.02;;;25.70;99.90;;;;;;5070645;28;20439;-72
2023/07/05 07:03:40;;;;;;;14.05;10.35;;;25.80;99.90;;;;;;5075003;28;20472;-73
2023/07/05 07:06:07;;;;;;;15.20;10.95;;;25.90;99.90;;;;;;5072586;28;20412;-72
2023/07/05 07:08:35;;;;;;;15.57;10.77;;;26.00;99.90;;;;;;5079041;28;20423;-72
2023/07/05 07:11:03;;;;;;;16.75;10.93;;;26.10;99.90;;;;;;5077216;28;21181;-72
2023/07/05 07:13:33;;;;;;;15.23;10.82;;;26.10;99.90;;;;;;5085944;28;20434;-72
2023/07/05 07:16:06;;;;;;;15.07;10.50;;;26.20;99.90;;;;;;5078799;28;20775;-73
2023/07/05 07:18:35;;;;;;;16.55;10.75;;;26.30;99.90;;;;;;5078197;28;21193;-72
2023/07/05 07:21:07;;;;;;;16.57;10.80;;;26.40;99.90;;;;;;5075643;28;20408;-72
2023/07/05 07:23:33;;;;;;;18.13;11.35;;;26.50;99.90;;;;;;5074474;28;20447;-73
2023/07/05 07:26:03;;;;;;;20.88;11.63;;;26.50;99.90;;;;;;5096019;28;20396;-73
2023/07/05 07:28:29;;;;;;;15.15;11.75;;;26.60;99.90;;;;;;5070305;28;20491;-76
2023/07/05 07:30:57;;;;;;;16.88;11.40;;;26.80;99.90;;;;;;5069465;28;20552;-73
2023/07/05 07:33:24;;;;;;;16.90;11.90;;;26.80;99.90;;;;;;5078462;28;20424;-73
2023/07/05 07:35:50;;;;;;;15.90;11.52;;;26.90;99.90;;;;;;5083757;28;20423;-73
2023/07/05 07:38:18;;;;;;;14.65;11.32;;;27.00;99.90;;;;;;5077604;28;20422;-73
2023/07/05 07:40:44;;;;;;;18.58;11.50;;;27.20;99.90;;;;;;5076023;28;20633;-72
2023/07/05 07:43:10;;;;;;;14.60;10.93;;;27.30;99.90;;;;;;5066142;28;21287;-72
2023/07/05 07:45:37;;;;;;;15.05;10.93;;;27.40;99.90;;;;;;5073344;28;20408;-72
2023/07/05 07:48:04;;;;;;;16.00;10.93;;;27.60;99.90;;;;;;5081131;28;20410;-72
2023/07/05 07:50:31;;;;;;;16.08;11.10;;;27.70;99.90;;;;;;5071760;28;20400;-72
2023/07/05 07:52:57;;;;;;;14.80;10.20;;;27.80;99.90;;;;;;5075440;28;20418;-72
2023/07/05 07:55:24;;;;;;;16.33;10.77;;;28.00;99.90;;;;;;5072670;28;20824;-72
2023/07/05 07:57:50;;;;;;;15.55;10.30;;;28.00;99.90;;;;;;5069716;28;20417;-72
2023/07/05 08:00:17;;;;;;;14.65;10.25;;;28.10;99.90;;;;;;5075789;28;20720;-72
2023/07/05 08:02:44;;;;;;;15.65;10.13;;;28.20;99.90;;;;;;5059120;28;20412;-72
2023/07/05 08:05:15;;;;;;;17.95;10.00;;;28.20;99.90;;;;;;5075357;28;20620;-72
2023/07/05 08:07:42;;;;;;;15.02;10.70;;;28.30;99.90;;;;;;5073811;28;20411;-72
2023/07/05 08:10:09;;;;;;;15.45;10.65;;;28.30;99.90;;;;;;5086688;27;20422;-72
2023/07/05 08:12:36;;;;;;;19.80;10.50;;;28.40;99.90;;;;;;5092712;27;20419;-72
2023/07/05 08:15:03;;;;;;;18.33;10.73;;;28.50;99.90;;;;;;5069962;28;20414;-72
2023/07/05 08:17:29;;;;;;;18.05;11.48;;;28.60;99.90;;;;;;5064947;28;20420;-72
2023/07/05 08:19:55;;;;;;;16.58;11.05;;;28.70;99.90;;;;;;5081647;27;20411;-72
2023/07/05 08:22:22;;;;;;;18.42;10.55;;;28.70;99.90;;;;;;5059736;28;20429;-72
2023/07/05 08:24:48;;;;;;;13.43;10.07;;;29.00;99.90;;;;;;5078845;28;20407;-72
2023/07/05 08:27:14;;;;;;;15.05;9.20;;;29.20;99.90;;;;;;5093060;27;20399;-72
2023/07/05 08:29:41;;;;;;;14.38;9.60;;;29.30;99.90;;;;;;5072116;28;20406;-72
2023/07/05 08:32:09;;;;;;;16.33;9.65;;;29.40;99.90;;;;;;5083068;28;20398;-72
2023/07/05 08:34:36;;;;;;;12.85;9.13;;;29.60;99.90;;;;;;5064602;28;20509;-72
2023/07/05 08:37:03;;;;;;;15.02;9.52;;;29.50;99.90;;;;;;5084629;28;20443;-72
2023/07/05 08:39:30;;;;;;;13.25;8.70;;;29.70;99.90;;;;;;5080363;28;20410;-72
2023/07/05 08:42:44;;;;;;;13.45;8.75;;;29.70;99.90;;;;;;5101635;27;20411;-72
2023/07/05 08:45:25;;;;;;;17.90;8.80;;;29.80;99.90;;;;;;5070110;28;20412;-72
2023/07/05 08:48:01;;;;;;;12.57;8.30;;;30.00;99.90;;;;;;5111701;27;20729;-73
2023/07/05 08:50:52;;;;;;;13.77;8.43;;;29.80;99.90;;;;;;5076965;28;21084;-72
2023/07/05 08:53:20;;;;;;;14.93;8.48;;;30.10;99.90;;;;;;5070630;28;20418;-73
2023/07/05 08:55:59;;;;;;;12.48;7.95;;;30.30;99.90;;;;;;5099309;28;20451;-73
2023/07/05 08:58:48;;;;;;;12.27;8.27;;;30.30;99.90;;;;;;5074235;28;20415;-73
2023/07/05 09:01:26;;;;;;;13.40;8.02;;;30.50;99.90;;;;;;5072481;28;20403;-73
2023/07/05 09:03:53;;;;;;;11.57;7.75;;;30.60;99.90;;;;;;5064191;28;21109;-73
2023/07/05 09:06:47;;;;;;;11.27;7.88;;;30.80;99.90;;;;;;5053745;28;21063;-72
2023/07/05 09:09:20;;;;;;;11.98;7.65;;;30.90;99.90;;;;;;5099902;27;20467;-72
2023/07/05 09:12:24;;;;;;;11.38;8.20;;;30.90;99.90;;;;;;5060105;28;20432;-72
2023/07/05 09:15:20;;;;;;;11.55;8.00;;;30.70;99.90;;;;;;5066866;28;20490;-72
2023/07/05 09:18:14;;;;;;;11.18;7.53;;;30.60;99.90;;;;;;5103667;27;20401;-72
2023/07/05 09:21:21;;;;;;;12.93;7.63;;;30.70;99.90;;;;;;5097517;27;20419;-73
2023/07/05 09:24:19;;;;;;;12.82;7.78;;;30.90;99.90;;;;;;5068444;28;20407;-73
2023/07/05 09:27:04;;;;;;;13.68;7.40;;;31.10;99.90;;;;;;5075911;28;21024;-73
2023/07/05 09:29:54;;;;;;;11.95;7.75;;;31.20;99.90;;;;;;5070474;28;20402;-72
2023/07/05 09:32:32;;;;;;;13.30;7.93;;;31.10;99.90;;;;;;5073797;28;20434;-73
2023/07/05 09:35:00;;;;;;;12.40;7.90;;;31.00;99.90;;;;;;5067866;28;20437;-73
2023/07/05 09:37:37;;;;;;;14.93;8.20;;;31.10;99.90;;;;;;5059404;28;20410;-73
2023/07/05 09:40:26;;;;;;;17.35;7.95;;;31.20;99.90;;;;;;5095986;27;20409;-73
2023/07/05 09:43:28;;;;;;;13.30;8.13;;;30.90;99.90;;;;;;5085016;27;20416;-72
2023/07/05 09:45:54;;;;;;;13.20;7.75;;;31.10;99.90;;;;;;5091560;27;20504;-72
2023/07/05 09:48:20;;;;;;;13.07;7.88;;;31.10;99.90;;;;;;5054008;28;20746;-72
2023/07/05 09:50:51;;;;;;;13.30;7.80;;;31.20;99.90;;;;;;5068857;28;20470;-73
2023/07/05 09:53:39;;;;;;;19.83;8.15;;;31.00;99.90;;;;;;5066000;28;20412;-73
2023/07/05 09:56:15;;;;;;;15.05;7.72;;;30.90;99.90;;;;;;5058508;28;20954;-73
2023/07/05 09:58:44;;;;;;;12.73;7.55;;;30.90;99.90;;;;;;5093363;28;20418;-73
2023/07/05 10:01:23;;;;;;;11.97;8.00;;;31.00;99.90;;;;;;5076661;28;20445;-73
2023/07/05 10:03:57;;;;;;;14.57;8.75;;;31.10;99.90;;;;;;5073629;28;20415;-72
2023/07/05 10:06:28;;;;;;;14.53;8.30;;;30.90;99.90;;;;;;5088232;28;21138;-72
2023/07/05 10:08:59;;;;;;;13.73;8.02;;;30.80;99.90;;;;;;5098489;28;20412;-73
2023/07/05 10:11:33;;;;;;;14.40;8.40;;;31.00;99.90;;;;;;5084504;27;20538;-73
2023/07/05 10:14:12;;;;;;;14.05;7.88;;;31.20;99.90;;;;;;5099487;27;20420;-73
2023/07/05 10:16:54;;;;;;;14.07;8.18;;;31.20;99.90;;;;;;5089959;28;20943;-73
2023/07/05 10:19:20;;;;;;;14.18;8.10;;;31.00;99.90;;;;;;5064999;28;21050;-73
2023/07/05 10:22:06;;;;;;;15.43;8.40;;;31.10;99.90;;;;;;5054035;28;20433;-73
2023/07/05 10:24:45;;;;;;;14.13;8.30;;;31.20;99.90;;;;;;5074396;28;20510;-73
2023/07/05 10:27:26;;;;;;;13.32;8.20;;;31.10;99.90;;;;;;5060520;28;20475;-74
2023/07/05 10:30:13;;;;;;;13.43;8.20;;;31.10;99.90;;;;;;5068493;28;20455;-73
2023/07/05 10:32:46;;;;;;;16.60;8.30;;;30.80;99.90;;;;;;5080926;28;20781;-73
2023/07/05 10:35:31;;;;;;;15.20;8.70;;;30.70;99.90;;;;;;5057718;28;20406;-73
2023/07/05 10:37:58;;;;;;;16.15;8.70;;;30.80;99.90;;;;;;5080873;28;20940;-73
2023/07/05 10:40:25;;;;;;;12.52;8.15;;;30.70;99.90;;;;;;5081840;28;20460;-73
2023/07/05 10:43:01;;;;;;;12.00;8.00;;;30.80;99.90;;;;;;5076110;28;20410;-73
2023/07/05 10:45:34;;;;;;;16.60;8.30;;;30.90;99.90;;;;;;5072754;28;20410;-73
2023/07/05 10:48:02;;;;;;;13.02;8.27;;;30.70;99.90;;;;;;5066540;28;21101;-73
2023/07/05 10:50:47;;;;;;;13.07;8.35;;;30.60;99.90;;;;;;5070662;28;20418;-74
2023/07/05 10:53:19;;;;;;;13.65;8.18;;;30.70;99.90;;;;;;5068406;28;20463;-74
2023/07/05 10:55:57;;;;;;;15.07;8.60;;;30.80;99.90;;;;;;5079530;28;20443;-74
2023/07/05 10:58:41;;;;;;;16.92;9.35;;;30.90;99.90;;;;;;5076097;28;20437;-74
2023/07/05 11:01:30;;;;;;;13.65;8.68;;;30.80;99.90;;;;;;5055327;28;20884;-74
2023/07/05 11:04:22;;;;;;;12.70;8.75;;;30.80;99.90;;;;;;5100168;27;20426;-74
2023/07/05 11:06:53;;;;;;;15.30;8.48;;;30.90;99.90;;;;;;5073636;28;20477;-74
2023/07/05 11:09:20;;;;;;;14.65;8.40;;;30.80;99.90;;;;;;5070822;28;20428;-74
2023/07/05 11:11:55;;;;;;;13.38;8.38;;;30.80;99.90;;;;;;5100653;27;20402;-74
2023/07/05 11:14:28;;;;;;;14.68;8.38;;;30.80;99.90;;;;;;5071141;28;20403;-74
2023/07/05 11:16:57;;;;;;;13.55;8.40;;;30.80;99.90;;;;;;5063601;28;20411;-74
2023/07/05 11:19:29;;;;;;;13.93;8.43;;;30.90;99.90;;;;;;5078157;28;20455;-74
2023/07/05 11:21:55;;;;;;;18.83;8.20;;;30.80;99.90;;;;;;5073155;28;20461;-74
2023/07/05 11:24:31;;;;;;;15.98;8.25;;;30.80;99.90;;;;;;5069661;28;20977;-74
2023/07/05 11:27:21;;;;;;;15.60;8.43;;;30.70;99.90;;;;;;5070606;28;20417;-74
2023/07/05 11:29:47;;;;;;;12.40;8.10;;;30.50;99.90;;;;;;5097044;27;20411;-74
2023/07/05 11:32:14;;;;;;;16.02;8.32;;;30.50;99.90;;;;;;5070732;28;20398;-74
2023/07/05 11:34:49;;;;;;;12.45;8.27;;;30.50;99.90;;;;;;5073033;28;21164;-74
2023/07/05 11:37:15;;;;;;;14.27;9.05;;;30.50;99.90;;;;;;5081242;28;20863;-74
2023/07/05 11:39:45;;;;;;;13.00;8.55;;;30.50;99.90;;;;;;5077828;28;20938;-74
2023/07/05 11:42:15;;;;;;;13.07;9.75;;;30.50;99.90;;;;;;5075445;28;20444;-74
2023/07/05 11:44:44;;;;;;;17.23;8.52;;;30.40;99.90;;;;;;5074476;28;20399;-74
2023/07/05 11:47:34;;;;;;;15.98;8.65;;;30.50;99.90;;;;;;5066294;28;20514;-74
2023/07/05 11:50:08;;;;;;;12.80;8.30;;;30.50;99.90;;;;;;5054802;28;20407;-74
2023/07/05 11:53:14;;;;;;;13.73;8.75;;;30.50;99.90;;;;;;5065144;28;21209;-74
2023/07/05 11:55:41;;;;;;;12.90;8.73;;;30.60;99.90;;;;;;5014410;28;20505;-74
2023/07/05 11:58:39;;;;;;;14.38;8.98;;;30.60;99.90;;;;;;5068726;28;20413;-73
2023/07/05 12:01:15;;;;;;;14.35;8.88;;;30.70;99.90;;;;;;5065081;28;20426;-74
2023/07/05 12:03:55;;;;;;;12.03;8.60;;;30.70;99.90;;;;;;5089826;28;20475;-74
2023/07/05 12:06:40;;;;;;;13.63;8.88;;;30.60;99.90;;;;;;5079281;28;20408;-74
2023/07/05 12:09:21;;;;;;;15.68;8.75;;;30.60;99.90;;;;;;5070135;28;20777;-74
2023/07/05 12:11:56;;;;;;;14.00;8.40;;;30.50;99.90;;;;;;5068074;28;20421;-74
2023/07/05 12:14:23;;;;;;;11.85;8.35;;;30.60;99.90;;;;;;5072288;28;20457;-74
2023/07/05 12:16:52;;;;;;;14.57;8.32;;;30.70;99.90;;;;;;5073151;28;20936;-74
2023/07/05 12:19:30;;;;;;;14.38;8.13;;;30.60;99.90;;;;;;5062302;28;20409;-74
2023/07/05 12:22:06;;;;;;;13.02;8.10;;;30.60;99.90;;;;;;5074470;28;20418;-74
2023/07/05 12:24:51;;;;;;;12.50;8.32;;;30.70;99.90;;;;;;5070681;28;20397;-74
2023/07/05 12:27:32;;;;;;;13.50;8.55;;;30.80;99.90;;;;;;5082747;28;20532;-74
2023/07/05 12:30:07;;;;;;;11.75;7.63;;;30.60;99.90;;;;;;5097917;27;20887;-74
2023/07/05 12:32:35;;;;;;;11.75;8.05;;;30.60;99.90;;;;;;5078298;28;20476;-74
2023/07/05 12:35:11;;;;;;;15.70;8.63;;;30.60;99.90;;;;;;5093816;28;20422;-74
2023/07/05 12:37:38;;;;;;;17.77;9.17;;;30.50;99.90;;;;;;5078467;28;20497;-74
2023/07/05 12:40:13;;;;;;;16.50;8.15;;;30.50;99.90;;;;;;5088661;27;20409;-74
2023/07/05 12:42:59;;;;;;;12.38;7.80;;;30.50;99.90;;;;;;5105133;27;20911;-74
2023/07/05 12:45:39;;;;;;;11.77;7.80;;;30.50;99.90;;;;;;5074551;28;20455;-74
2023/07/05 12:48:16;;;;;;;14.13;8.85;;;30.50;99.90;;;;;;5064494;28;20418;-74
2023/07/05 12:50:43;;;;;;;11.23;7.97;;;30.40;99.90;;;;;;5092161;27;20484;-74
2023/07/05 12:53:23;;;;;;;13.38;7.82;;;30.40;99.90;;;;;;5066244;28;20418;-73
2023/07/05 12:56:08;;;;;;;11.75;7.93;;;30.30;99.90;;;;;;5092556;27;20410;-74
2023/07/05 12:58:37;;;;;;;13.23;8.57;;;30.30;99.90;;;;;;5061292;28;20410;-74